createdAt,value
2018-07-26T00:00:27.628Z,6.13
2018-07-26T00:02:58.226Z,5.90
2018-07-26T00:05:26.634Z,6.27
2018-07-26T00:07:54.842Z,5.90
2018-07-26T00:10:27.415Z,5.47
2018-07-26T00:12:58.067Z,6.20
2018-07-26T00:15:29.929Z,6.00
2018-07-26T00:17:59.541Z,6.73
2018-07-26T00:20:28.914Z,6.50
2018-07-26T00:22:57.133Z,6.63
2018-07-26T00:25:26.263Z,6.30
2018-07-26T00:27:55.297Z,5.90
2018-07-26T00:30:23.291Z,7.00
2018-07-26T00:32:53.067Z,5.70
2018-07-26T00:35:21.632Z,5.53
2018-07-26T00:37:49.804Z,5.60
2018-07-26T00:40:20.331Z,6.43
2018-07-26T00:42:49.057Z,5.30
2018-07-26T00:45:25.207Z,5.60
2018-07-26T00:47:54.707Z,6.63
2018-07-26T00:50:22.972Z,6.50
2018-07-26T00:52:52.515Z,6.07
2018-07-26T00:55:21.125Z,6.07
2018-07-26T00:57:49.626Z,6.83
2018-07-26T01:00:19.555Z,6.10
2018-07-26T01:02:47.937Z,7.20
2018-07-26T01:05:16.052Z,6.07
2018-07-26T01:07:44.323Z,6.47
2018-07-26T01:10:14.170Z,6.30
2018-07-26T01:12:42.584Z,6.57
2018-07-26T01:15:11.974Z,6.00
2018-07-26T01:17:40.112Z,6.20
2018-07-26T01:20:10.376Z,7.13
2018-07-26T01:22:41.064Z,6.77
2018-07-26T01:34:54.128Z,6.37
2018-07-26T01:37:23.060Z,6.00
2018-07-26T01:39:51.286Z,6.30
2018-07-26T01:42:19.708Z,6.77
2018-07-26T01:44:47.673Z,6.70
2018-07-26T01:47:16.913Z,6.57
2018-07-26T01:49:45.386Z,6.33
2018-07-26T01:52:15.344Z,6.50
2018-07-26T01:54:44.092Z,7.23
2018-07-26T01:57:14.277Z,7.77
2018-07-26T01:59:43.318Z,6.10
2018-07-26T02:02:14.203Z,7.10
2018-07-26T02:04:42.672Z,6.30
2018-07-26T02:07:13.267Z,6.80
2018-07-26T02:09:41.355Z,5.57
2018-07-26T02:12:11.769Z,5.90
2018-07-26T02:14:42.257Z,6.97
2018-07-26T02:17:12.551Z,7.07
2018-07-26T02:19:40.949Z,6.23
2018-07-26T02:22:10.309Z,6.10
2018-07-26T02:24:39.477Z,6.77
2018-07-26T02:27:10.681Z,6.37
2018-07-26T02:42:35.637Z,6.10
2018-07-26T02:45:04.943Z,7.20
2018-07-26T02:47:35.369Z,6.37
2018-07-26T02:50:05.621Z,6.37
2018-07-26T02:52:35.506Z,7.23
2018-07-26T02:55:05.497Z,6.93
2018-07-26T02:57:35.860Z,6.50
2018-07-26T03:00:07.109Z,6.63
2018-07-26T03:02:39.349Z,7.37
2018-07-26T03:05:09.417Z,6.57
2018-07-26T03:07:38.264Z,6.00
2018-07-26T03:10:07.937Z,6.87
2018-07-26T03:12:37.436Z,6.93
2018-07-26T03:15:08.574Z,6.13
2018-07-26T03:17:41.463Z,6.93
2018-07-26T03:20:13.232Z,6.30
2018-07-26T03:22:44.500Z,6.60
2018-07-26T03:25:13.968Z,6.00
2018-07-26T03:27:41.967Z,7.00
2018-07-26T03:30:11.428Z,6.63
2018-07-26T03:32:40.818Z,6.10
2018-07-26T03:48:04.816Z,6.03
2018-07-26T03:50:34.500Z,6.70
2018-07-26T03:53:04.725Z,7.30
2018-07-26T03:55:32.820Z,7.23
2018-07-26T03:58:02.981Z,7.77
2018-07-26T04:00:32.044Z,6.93
2018-07-26T04:03:03.040Z,6.53
2018-07-26T04:05:32.757Z,7.00
2018-07-26T04:08:03.052Z,7.10
2018-07-26T04:10:33.310Z,7.67
2018-07-26T04:13:04.638Z,7.43
2018-07-26T04:15:34.865Z,7.60
2018-07-26T04:18:09.453Z,6.77
2018-07-26T04:20:40.333Z,6.83
2018-07-26T04:23:10.863Z,5.90
2018-07-26T04:25:39.090Z,6.60
2018-07-26T04:28:10.436Z,6.23
2018-07-26T04:30:39.559Z,6.20
2018-07-26T04:33:10.281Z,6.90
2018-07-26T04:35:39.690Z,6.50
2018-07-26T04:38:10.996Z,6.80
2018-07-26T04:40:42.764Z,7.33
2018-07-26T04:43:12.969Z,7.47
2018-07-26T04:45:44.359Z,7.17
2018-07-26T04:48:19.959Z,6.43
2018-07-26T04:50:52.404Z,6.77
2018-07-26T04:53:23.015Z,7.43
2018-07-26T04:55:54.807Z,6.57
2018-07-26T04:58:27.022Z,6.30
2018-07-26T05:01:01.119Z,6.00
2018-07-26T05:03:33.051Z,6.37
2018-07-26T05:06:04.723Z,7.73
2018-07-26T05:08:38.484Z,6.90
2018-07-26T05:11:10.140Z,6.20
2018-07-26T05:13:41.860Z,6.40
2018-07-26T05:16:13.441Z,6.87
2018-07-26T05:18:45.574Z,6.57
2018-07-26T05:21:16.252Z,6.10
2018-07-26T05:23:45.710Z,5.97
2018-07-26T05:42:28.405Z,6.17
2018-07-26T05:45:03.243Z,6.13
2018-07-26T05:47:34.489Z,7.73
2018-07-26T05:50:05.723Z,7.47
2018-07-26T05:52:36.631Z,6.07
2018-07-26T05:55:08.019Z,7.40
2018-07-26T05:57:39.323Z,7.77
2018-07-26T06:00:14.361Z,6.73
2018-07-26T06:02:49.577Z,7.60
2018-07-26T06:05:21.115Z,7.13
2018-07-26T06:07:51.237Z,7.30
2018-07-26T06:10:23.011Z,7.67
2018-07-26T06:12:52.841Z,7.50
2018-07-26T06:15:23.838Z,7.50
2018-07-26T06:17:56.899Z,8.60
2018-07-26T06:20:28.170Z,7.27
2018-07-26T06:23:00.262Z,7.90
2018-07-26T06:25:32.551Z,7.00
2018-07-26T06:28:03.022Z,7.10
2018-07-26T06:30:35.890Z,7.13
2018-07-26T06:33:06.897Z,7.17
2018-07-26T06:35:38.474Z,7.57
2018-07-26T06:38:10.632Z,7.90
2018-07-26T06:40:43.355Z,6.83
2018-07-26T06:43:14.981Z,7.13
2018-07-26T06:45:47.685Z,6.60
2018-07-26T06:48:22.160Z,7.83
2018-07-26T06:50:57.177Z,7.37
2018-07-26T06:53:28.374Z,6.40
2018-07-26T06:56:01.454Z,8.30
2018-07-26T06:58:33.002Z,6.30
2018-07-26T07:14:01.951Z,6.63
2018-07-26T07:16:33.544Z,6.73
2018-07-26T07:19:05.021Z,7.50
2018-07-26T07:21:38.026Z,6.67
2018-07-26T07:24:10.982Z,8.10
2018-07-26T07:26:43.406Z,6.60
2018-07-26T07:29:14.869Z,7.40
2018-07-26T07:31:47.658Z,6.20
2018-07-26T07:34:21.832Z,6.57
2018-07-26T07:36:53.882Z,6.20
2018-07-26T07:39:29.590Z,5.83
2018-07-26T07:42:02.244Z,5.50
2018-07-26T07:44:33.856Z,5.10
2018-07-26T07:58:52.643Z,4.73
2018-07-26T08:01:25.357Z,4.73
2018-07-26T08:03:57.649Z,4.60
2018-07-26T08:06:30.724Z,5.00
2018-07-26T08:28:27.241Z,4.97
2018-07-26T08:31:02.384Z,4.43
2018-07-26T08:33:37.705Z,4.67
2018-07-26T08:36:11.147Z,4.33
2018-07-26T08:38:42.296Z,4.70
2018-07-26T08:41:13.742Z,5.10
2018-07-26T08:43:45.557Z,4.13
2018-07-26T08:46:18.152Z,4.63
2018-07-26T08:48:52.137Z,4.13
2018-07-26T08:51:25.977Z,3.80
2018-07-26T08:53:58.376Z,3.80
2018-07-26T08:56:30.378Z,4.00
2018-07-26T08:59:01.851Z,4.20
2018-07-26T09:01:32.922Z,3.60
2018-07-26T09:04:04.040Z,3.90
2018-07-26T09:15:26.842Z,3.90
2018-07-26T09:17:58.838Z,3.60
2018-07-26T09:20:32.226Z,3.30
2018-07-26T09:23:04.671Z,2.90
2018-07-26T09:25:36.384Z,3.67
2018-07-26T09:28:09.533Z,3.37
2018-07-26T09:30:41.540Z,3.37
2018-07-26T09:33:14.772Z,3.50
2018-07-26T09:35:47.780Z,3.17
2018-07-26T09:38:22.806Z,3.67
2018-07-26T09:41:00.383Z,3.80
2018-07-26T09:56:29.430Z,3.27
2018-07-26T09:59:01.990Z,3.43
2018-07-26T10:01:34.865Z,3.00
2018-07-26T10:04:07.819Z,3.73
2018-07-26T10:06:41.165Z,2.70
2018-07-26T10:09:14.024Z,2.83
2018-07-26T10:11:45.867Z,2.70
2018-07-26T10:14:18.001Z,2.67
2018-07-26T10:16:49.868Z,2.60
2018-07-26T10:19:25.965Z,2.30
2018-07-26T10:21:57.139Z,3.00
2018-07-26T10:24:29.568Z,2.60
2018-07-26T10:27:01.410Z,2.40
2018-07-26T10:29:35.436Z,2.63
2018-07-26T10:32:11.791Z,2.83
2018-07-26T10:34:42.770Z,3.00
2018-07-26T10:37:18.129Z,2.70
2018-07-26T10:39:50.397Z,3.50
2018-07-26T10:42:23.839Z,2.70
2018-07-26T10:44:57.039Z,2.70
2018-07-26T10:47:28.763Z,3.03
2018-07-26T10:50:01.148Z,2.87
2018-07-26T10:52:33.283Z,2.40
2018-07-26T10:55:06.433Z,2.63
2018-07-26T10:57:39.307Z,2.47
2018-07-26T11:00:12.048Z,2.47
2018-07-26T11:02:44.631Z,2.57
2018-07-26T11:05:20.135Z,2.50
2018-07-26T11:07:52.510Z,2.40
2018-07-26T11:10:25.581Z,2.87
2018-07-26T11:12:57.312Z,2.43
2018-07-26T11:15:31.384Z,2.80
2018-07-26T11:18:04.200Z,2.60
2018-07-26T11:20:37.779Z,2.60
2018-07-26T11:23:09.212Z,2.80
2018-07-26T11:25:41.406Z,2.33
2018-07-26T11:28:13.947Z,2.20
2018-07-26T11:30:46.823Z,2.33
2018-07-26T11:33:20.109Z,2.73
2018-07-26T11:35:51.948Z,2.30
2018-07-26T11:38:25.517Z,2.50
2018-07-26T12:03:34.283Z,1.80
2018-07-26T12:15:50.061Z,1.60
2018-07-26T12:18:22.497Z,1.80
2018-07-26T12:20:55.744Z,1.60
2018-07-26T12:36:23.567Z,1.00
2018-07-26T12:38:56.092Z,1.00
2018-07-26T12:41:28.090Z,1.13
2018-07-26T12:44:03.041Z,1.30
2018-07-26T12:46:38.251Z,1.23
2018-07-26T12:49:10.688Z,1.33
2018-07-26T12:51:44.112Z,1.47
2018-07-26T12:54:19.297Z,1.27
2018-07-26T12:56:52.106Z,1.10
2018-07-26T12:59:23.615Z,1.80
2018-07-26T13:01:56.074Z,1.50
2018-07-26T13:04:27.730Z,1.50
2018-07-26T13:07:03.441Z,1.20
2018-07-26T13:09:35.987Z,1.60
2018-07-26T13:12:08.301Z,1.10
2018-07-26T13:14:41.363Z,1.30
2018-07-26T13:17:15.220Z,1.30
2018-07-26T13:19:45.531Z,1.17
2018-07-26T13:25:17.022Z,1.33
2018-07-26T13:40:46.145Z,1.30
2018-07-26T13:43:17.630Z,1.70
2018-07-26T13:45:50.364Z,1.60
2018-07-26T13:48:21.611Z,1.40
2018-07-26T13:50:53.599Z,1.33
2018-07-26T13:53:24.888Z,1.30
2018-07-26T13:55:58.306Z,1.67
2018-07-26T13:58:29.549Z,1.17
2018-07-26T14:01:04.969Z,1.40
2018-07-26T14:03:37.820Z,1.30
2018-07-26T14:06:10.287Z,1.20
2018-07-26T14:08:44.317Z,1.33
2018-07-26T14:11:17.208Z,1.13
2018-07-26T14:13:49.248Z,1.33
2018-07-26T14:16:24.071Z,1.13
2018-07-26T14:18:56.769Z,1.27
2018-07-26T14:21:28.516Z,1.47
2018-07-26T14:24:03.974Z,1.00
2018-07-26T14:26:36.021Z,1.30
2018-07-26T14:29:07.103Z,1.40
2018-07-26T14:31:43.081Z,1.70
2018-07-26T14:34:16.690Z,1.37
2018-07-26T14:36:48.725Z,1.20
2018-07-26T14:39:23.739Z,1.37
2018-07-26T14:41:55.492Z,1.47
2018-07-26T14:44:27.356Z,1.70
2018-07-26T14:47:00.665Z,1.60
2018-07-26T14:49:34.788Z,1.00
2018-07-26T14:52:08.887Z,1.30
2018-07-26T14:54:42.595Z,1.27
2018-07-26T14:57:14.437Z,1.50
2018-07-26T14:59:46.704Z,1.63
2018-07-26T15:02:18.869Z,1.33
2018-07-26T15:04:51.942Z,1.27
2018-07-26T15:07:26.997Z,1.70
2018-07-26T15:10:01.750Z,1.57
2018-07-26T15:12:35.375Z,1.50
2018-07-26T15:15:06.847Z,1.27
2018-07-26T15:17:39.079Z,1.30
2018-07-26T15:20:12.769Z,1.70
2018-07-26T15:22:45.941Z,1.60
2018-07-26T15:25:22.760Z,1.40
2018-07-26T15:27:52.147Z,1.57
2018-07-26T15:30:25.624Z,1.40
2018-07-26T15:32:58.268Z,1.50
2018-07-26T15:35:33.295Z,1.20
2018-07-26T15:38:09.398Z,1.43
2018-07-26T15:40:44.612Z,1.33
2018-07-26T15:43:19.946Z,1.50
2018-07-26T15:45:52.440Z,1.57
2018-07-26T15:48:24.688Z,1.40
2018-07-26T15:51:00.803Z,1.43
2018-07-26T15:53:34.575Z,1.33
2018-07-26T15:56:07.892Z,1.67
2018-07-26T15:58:39.917Z,1.53
2018-07-26T16:01:12.905Z,1.53
2018-07-26T16:03:46.233Z,1.77
2018-07-26T16:06:18.453Z,1.67
2018-07-26T16:08:51.516Z,1.73
2018-07-26T16:11:25.192Z,1.90
2018-07-26T16:13:57.182Z,2.10
2018-07-26T16:16:29.578Z,2.03
2018-07-26T16:19:02.463Z,1.90
2018-07-26T16:21:34.581Z,1.80
2018-07-26T16:24:09.095Z,1.90
2018-07-26T16:26:44.572Z,2.33
2018-07-26T16:29:17.066Z,2.00
2018-07-26T16:31:48.245Z,1.77
2018-07-26T16:34:22.356Z,1.73
2018-07-26T16:36:55.405Z,1.97
2018-07-26T16:39:27.918Z,2.10
2018-07-26T16:50:49.449Z,1.90
2018-07-26T16:53:21.541Z,1.77
2018-07-26T16:55:53.491Z,1.83
2018-07-26T16:58:27.301Z,2.30
2018-07-26T17:01:02.210Z,1.80
2018-07-26T17:03:34.016Z,1.90
2018-07-26T17:06:07.245Z,2.10
2018-07-26T17:08:39.712Z,1.93
2018-07-26T17:11:11.668Z,1.90
2018-07-26T17:13:44.113Z,1.80
2018-07-26T17:16:15.641Z,1.80
2018-07-26T17:18:48.206Z,2.03
2018-07-26T17:21:20.350Z,2.47
2018-07-26T17:23:51.760Z,2.30
2018-07-26T17:26:24.613Z,2.17
2018-07-26T17:38:40.037Z,1.67
2018-07-26T17:41:13.888Z,2.33
2018-07-26T17:43:49.541Z,2.37
2018-07-26T17:46:21.724Z,3.07
2018-07-26T17:48:52.881Z,2.30
2018-07-26T17:51:22.674Z,2.20
2018-07-26T17:53:52.524Z,2.13
2018-07-26T17:56:24.088Z,2.27
2018-07-26T17:58:55.304Z,2.27
2018-07-26T18:01:27.017Z,2.20
2018-07-26T18:03:56.874Z,2.33
2018-07-26T18:06:28.369Z,2.00
2018-07-26T18:08:58.798Z,2.23
2018-07-26T18:11:29.129Z,2.30
2018-07-26T18:13:58.550Z,2.07
2018-07-26T18:16:32.426Z,2.30
2018-07-26T18:19:03.994Z,2.13
2018-07-26T18:21:36.186Z,2.20
2018-07-26T18:24:06.938Z,2.30
2018-07-26T18:26:36.710Z,2.50
2018-07-26T18:29:10.021Z,2.40
2018-07-26T18:31:38.974Z,2.43
2018-07-26T18:34:09.124Z,2.17
2018-07-26T18:36:40.931Z,2.40
2018-07-26T18:39:13.060Z,2.30
2018-07-26T18:41:42.725Z,2.80
2018-07-26T18:44:13.739Z,2.80
2018-07-26T18:46:45.010Z,2.57
2018-07-26T18:49:15.673Z,2.20
2018-07-26T18:51:45.197Z,2.93
2018-07-26T18:54:15.464Z,2.57
2018-07-26T18:56:46.197Z,2.20
2018-07-26T18:59:16.959Z,2.67
2018-07-26T19:01:46.569Z,2.57
2018-07-26T19:04:17.857Z,2.50
2018-07-26T19:06:49.327Z,2.87
2018-07-26T19:09:20.410Z,2.90
2018-07-26T19:11:49.972Z,2.10
2018-07-26T19:14:20.971Z,2.27
2018-07-26T19:16:50.998Z,2.50
2018-07-26T19:19:19.973Z,2.50
2018-07-26T19:21:50.513Z,2.80
2018-07-26T19:24:20.748Z,2.00
2018-07-26T19:26:52.971Z,2.50
2018-07-26T19:29:21.993Z,2.50
2018-07-26T19:31:51.538Z,3.30
2018-07-26T19:34:23.053Z,2.70
2018-07-26T19:36:53.719Z,2.63
2018-07-26T19:39:23.883Z,2.80
2018-07-26T19:41:53.314Z,2.87
2018-07-26T19:44:23.761Z,2.60
2018-07-26T19:46:54.396Z,2.47
2018-07-26T19:49:25.133Z,2.33
2018-07-26T19:51:54.262Z,2.77
2018-07-26T19:54:25.017Z,2.40
2018-07-26T19:56:55.212Z,2.27
2018-07-26T19:59:25.295Z,2.43
2018-07-26T20:01:54.998Z,2.73
2018-07-26T20:04:24.818Z,2.60
2018-07-26T20:06:53.820Z,2.87
2018-07-26T20:09:23.840Z,2.73
2018-07-26T20:11:54.454Z,2.80
2018-07-26T20:14:30.676Z,2.53
2018-07-26T20:17:03.412Z,2.53
2018-07-26T20:19:37.042Z,2.60
2018-07-26T20:22:11.474Z,2.70
2018-07-26T20:24:43.090Z,3.00
2018-07-26T20:27:14.192Z,2.47
2018-07-26T20:29:44.972Z,2.70
2018-07-26T20:32:18.182Z,3.27
2018-07-26T20:34:52.346Z,2.97
2018-07-26T20:37:24.455Z,3.30
2018-07-26T20:39:54.092Z,3.10
2018-07-26T20:42:28.060Z,3.70
2018-07-26T20:45:00.503Z,2.90
2018-07-26T20:47:33.072Z,3.00
2018-07-26T20:50:03.713Z,3.03
2018-07-26T20:52:36.697Z,2.73
2018-07-26T20:55:08.169Z,2.73
2018-07-26T20:57:41.441Z,2.90
2018-07-26T21:00:16.156Z,2.90
2018-07-26T21:02:47.079Z,3.30
2018-07-26T21:05:17.877Z,3.20
2018-07-26T21:07:50.395Z,2.87
2018-07-26T21:10:21.933Z,2.70
2018-07-26T21:12:53.924Z,3.23
2018-07-26T21:15:25.860Z,3.17
2018-07-26T21:17:57.453Z,4.20
2018-07-26T21:20:29.089Z,2.93
2018-07-26T21:23:00.455Z,3.00
2018-07-26T21:25:30.157Z,3.57
2018-07-26T21:28:02.714Z,3.10
2018-07-26T21:30:35.527Z,3.92
2018-07-26T21:33:08.889Z,3.43
2018-07-26T21:35:40.805Z,3.43
2018-07-26T21:38:13.724Z,3.77
2018-07-26T21:40:46.731Z,3.50
2018-07-26T21:43:17.853Z,3.60
2018-07-26T21:45:50.760Z,3.13
2018-07-26T21:48:21.285Z,3.63
2018-07-26T21:50:52.674Z,3.00
2018-07-26T21:53:23.040Z,3.07
2018-07-26T21:55:55.257Z,3.27
2018-07-26T21:58:26.058Z,3.47
2018-07-26T22:00:59.156Z,3.10
2018-07-26T22:03:30.723Z,2.90
2018-07-26T22:06:02.430Z,3.87
2018-07-26T22:08:34.695Z,3.30
2018-07-26T22:11:07.079Z,3.17
2018-07-26T22:13:37.053Z,3.03
2018-07-26T22:16:10.637Z,3.33
2018-07-26T22:18:44.293Z,2.90
2018-07-26T22:21:17.312Z,3.10
2018-07-26T22:36:46.134Z,2.73
2018-07-26T22:39:16.826Z,2.93
2018-07-26T22:41:48.746Z,3.00
2018-07-26T22:44:20.293Z,3.30
2018-07-26T22:46:52.424Z,3.40
2018-07-26T22:49:22.668Z,2.93
2018-07-26T22:51:51.345Z,3.67
2018-07-26T22:54:23.543Z,3.53
2018-07-26T22:56:55.844Z,3.77
2018-07-26T22:59:26.301Z,3.63
2018-07-26T23:01:56.524Z,4.10
2018-07-26T23:04:30.868Z,3.87
2018-07-26T23:07:04.235Z,3.30
2018-07-26T23:09:34.950Z,4.00
2018-07-26T23:12:05.197Z,3.70
2018-07-26T23:14:35.581Z,3.97
2018-07-26T23:17:08.099Z,3.80
2018-07-26T23:19:40.187Z,3.70
2018-07-26T23:22:12.959Z,3.40
2018-07-26T23:24:44.193Z,3.77
2018-07-26T23:27:14.447Z,3.30
2018-07-26T23:29:46.721Z,3.40
2018-07-26T23:32:20.103Z,3.40
2018-07-26T23:34:52.600Z,3.77
2018-07-26T23:37:23.410Z,4.27
2018-07-26T23:39:52.669Z,3.77
2018-07-26T23:42:25.108Z,3.40
2018-07-26T23:44:56.277Z,3.13
2018-07-26T23:47:28.331Z,3.30
2018-07-26T23:49:56.591Z,3.70
2018-07-26T23:52:26.533Z,3.37
2018-07-26T23:54:56.343Z,3.73
2018-07-26T23:57:27.196Z,3.63
2018-07-26T23:59:57.199Z,3.50
